createdAt,value
2018-11-01T11:36:22.140Z,18.05
2018-11-01T11:38:51.982Z,18.02
2018-11-01T11:41:21.829Z,18.04
2018-11-01T11:43:52.409Z,17.98
2018-11-01T11:46:22.250Z,17.94
2018-11-01T11:48:55.136Z,17.99
2018-11-01T11:51:25.007Z,17.99
2018-11-01T11:53:54.867Z,17.93
2018-11-01T11:56:23.573Z,17.89
2018-11-01T11:58:51.816Z,17.90
2018-11-01T12:05:32.507Z,18.20
2018-11-01T12:08:07.415Z,17.75
2018-11-01T12:10:38.187Z,17.87
2018-11-01T12:13:08.488Z,18.23
2018-11-01T12:15:38.542Z,18.00
2018-11-01T12:18:09.729Z,18.71
2018-11-01T12:20:40.224Z,18.20
2018-11-01T12:23:10.389Z,18.56
2018-11-01T12:25:40.293Z,18.76
2018-11-01T12:28:10.798Z,18.60
2018-11-01T12:30:41.269Z,18.45
2018-11-01T12:33:11.797Z,18.33
2018-11-01T12:35:41.901Z,18.22
2018-11-01T12:38:11.768Z,18.17
2018-11-01T12:40:42.069Z,18.22
2018-11-01T12:43:12.913Z,18.17
2018-11-01T12:45:43.392Z,18.14
2018-11-01T12:48:13.557Z,18.07
2018-11-01T12:50:43.486Z,17.94
2018-11-01T12:53:14.060Z,17.87
2018-11-01T12:55:44.281Z,17.87
2018-11-01T12:58:14.483Z,17.94
2018-11-01T13:00:44.472Z,18.01
2018-11-01T13:03:14.919Z,17.99
2018-11-01T13:05:44.972Z,17.92
2018-11-01T13:08:15.505Z,18.02
2018-11-01T13:10:45.648Z,18.03
2018-11-01T13:13:16.138Z,17.99
2018-11-01T13:15:46.832Z,17.87
2018-11-01T13:18:17.317Z,17.77
2018-11-01T13:20:47.793Z,17.68
2018-11-01T13:23:17.984Z,17.66
2018-11-01T13:25:48.531Z,17.70
2018-11-01T13:28:18.700Z,17.72
2018-11-01T13:30:48.625Z,17.74
2018-11-01T13:33:18.601Z,17.75
2018-11-01T13:35:48.792Z,17.74
2018-11-01T13:38:19.016Z,17.68
2018-11-01T13:40:49.934Z,17.65
2018-11-01T13:43:19.776Z,17.68
2018-11-01T13:45:49.881Z,17.69
2018-11-01T13:48:20.360Z,17.67
2018-11-01T13:50:50.135Z,17.61
2018-11-01T13:53:20.281Z,17.54
2018-11-01T13:55:50.789Z,17.50
2018-11-01T13:58:21.357Z,17.47
2018-11-01T14:00:51.705Z,17.42
2018-11-01T14:03:22.144Z,17.40
2018-11-01T14:05:52.868Z,17.38
2018-11-01T14:08:23.298Z,17.38
2018-11-01T14:10:54.073Z,17.37
2018-11-01T14:13:24.960Z,17.38
2018-11-01T14:15:55.073Z,17.41
2018-11-01T14:18:24.953Z,17.39
2018-11-01T14:20:55.937Z,17.40
2018-11-01T14:23:26.737Z,17.47
2018-11-01T14:25:57.311Z,17.46
2018-11-01T14:28:27.836Z,17.44
2018-11-01T14:30:57.988Z,17.43
2018-11-01T14:33:28.889Z,17.40
2018-11-01T14:35:58.978Z,17.36
2018-11-01T14:38:29.203Z,17.35
2018-11-01T14:40:59.331Z,17.33
2018-11-01T14:43:29.593Z,17.35
2018-11-01T14:58:10.558Z,17.30
2018-11-01T15:00:40.192Z,17.30
2018-11-01T15:03:10.364Z,17.29
2018-11-01T15:05:40.270Z,17.24
2018-11-01T15:08:10.351Z,17.22
2018-11-01T15:10:40.474Z,17.19
2018-11-01T15:13:10.579Z,17.16
2018-11-01T15:15:40.855Z,17.14
2018-11-01T15:18:11.154Z,17.09
2018-11-01T15:20:41.514Z,17.10
2018-11-01T15:23:11.630Z,17.11
2018-11-01T15:25:41.800Z,17.06
2018-11-01T15:28:12.527Z,17.02
2018-11-01T15:30:42.756Z,17.00
2018-11-01T15:33:13.758Z,17.00
2018-11-01T15:35:44.336Z,16.95
2018-11-01T15:38:14.690Z,16.92
2018-11-01T15:40:45.008Z,16.90
2018-11-01T15:43:16.083Z,16.88
2018-11-01T15:45:47.583Z,16.85
2018-11-01T15:48:18.667Z,16.85
2018-11-01T15:50:51.363Z,16.84
2018-11-01T15:53:22.023Z,16.83
2018-11-01T15:55:52.371Z,16.82
2018-11-01T15:58:23.428Z,16.79
2018-11-01T16:00:55.464Z,16.79
2018-11-01T16:03:25.880Z,16.78
2018-11-01T16:05:56.639Z,16.76
2018-11-01T16:08:27.328Z,16.75
2018-11-01T16:10:57.678Z,16.74
2018-11-01T16:13:27.810Z,16.73
2018-11-01T16:15:58.869Z,16.71
2018-11-01T16:18:28.999Z,16.69
2018-11-01T16:20:59.044Z,16.68
2018-11-01T16:23:29.212Z,16.67
2018-11-01T16:25:59.638Z,16.66
2018-11-01T16:28:30.363Z,16.65
2018-11-01T16:31:00.456Z,16.66
2018-11-01T16:33:35.534Z,16.67
2018-11-01T16:36:07.009Z,16.68
2018-11-01T16:38:37.002Z,16.66
2018-11-01T16:41:09.254Z,16.68
2018-11-01T16:43:39.458Z,16.66
2018-11-01T16:46:09.706Z,16.64
2018-11-01T16:48:39.930Z,16.63
2018-11-01T16:51:10.769Z,16.64
2018-11-01T16:53:40.953Z,16.64
2018-11-01T16:56:11.662Z,16.65
2018-11-01T16:58:42.009Z,16.65
2018-11-01T17:01:12.469Z,16.64
2018-11-01T17:03:42.797Z,16.63
2018-11-01T17:06:12.775Z,16.61
2018-11-01T17:08:42.845Z,16.58
2018-11-01T17:11:13.973Z,16.55
2018-11-01T17:13:44.104Z,16.53
2018-11-01T17:16:14.277Z,16.52
2018-11-01T17:18:44.638Z,16.52
2018-11-01T17:21:15.625Z,16.50
2018-11-01T17:23:46.156Z,16.50
2018-11-01T17:26:16.400Z,16.48
2018-11-01T17:28:46.333Z,16.49
2018-11-01T17:31:16.901Z,16.47
2018-11-01T17:33:47.095Z,16.46
2018-11-01T17:36:17.521Z,16.46
2018-11-01T17:38:48.480Z,16.45
2018-11-01T17:41:18.636Z,16.44
2018-11-01T17:43:48.648Z,16.43
2018-11-01T17:46:18.867Z,16.44
2018-11-01T17:48:49.052Z,16.43
2018-11-01T17:51:19.067Z,16.42
2018-11-01T17:53:49.177Z,16.41
2018-11-01T17:56:19.456Z,16.40
2018-11-01T17:58:50.335Z,16.39
2018-11-01T18:01:20.441Z,16.39
2018-11-01T18:03:50.353Z,16.38
2018-11-01T18:06:20.209Z,16.37
2018-11-01T18:08:50.280Z,16.38
2018-11-01T18:11:20.432Z,16.36
2018-11-01T18:13:50.699Z,16.34
2018-11-01T18:16:21.906Z,16.34
2018-11-01T18:18:52.166Z,16.35
2018-11-01T18:21:22.961Z,16.35
2018-11-01T18:23:53.050Z,16.35
2018-11-01T18:26:23.221Z,16.33
2018-11-01T18:28:54.133Z,16.31
2018-11-01T18:31:23.992Z,16.31
2018-11-01T18:33:53.977Z,16.32
2018-11-01T18:36:24.043Z,16.31
2018-11-01T18:38:54.510Z,16.32
2018-11-01T18:41:25.339Z,16.32
2018-11-01T18:43:55.402Z,16.33
2018-11-01T18:46:25.694Z,16.29
2018-11-01T18:48:56.566Z,16.31
2018-11-01T18:51:26.921Z,16.28
2018-11-01T18:53:57.361Z,16.27
2018-11-01T18:56:27.707Z,16.25
2018-11-01T18:58:57.924Z,16.27
2018-11-01T19:01:27.945Z,16.24
2018-11-01T19:03:57.805Z,16.24
2018-11-01T19:06:28.120Z,16.24
2018-11-01T19:08:58.457Z,16.24
2018-11-01T19:11:29.131Z,16.24
2018-11-01T19:13:59.737Z,16.23
2018-11-01T19:16:29.785Z,16.22
2018-11-01T19:18:59.980Z,16.24
2018-11-01T19:21:30.296Z,16.22
2018-11-01T19:24:00.727Z,16.21
2018-11-01T19:26:34.643Z,16.22
2018-11-01T19:29:05.538Z,16.21
2018-11-01T19:31:35.724Z,16.22
2018-11-01T19:34:06.009Z,16.21
2018-11-01T19:36:36.595Z,16.19
2018-11-01T19:39:09.400Z,16.18
2018-11-01T19:41:40.500Z,16.20
2018-11-01T19:44:10.534Z,16.19
2018-11-01T19:46:40.754Z,16.17
2018-11-01T19:49:10.734Z,16.17
2018-11-01T19:51:40.658Z,16.16
2018-11-01T19:54:11.042Z,16.17
2018-11-01T19:56:41.074Z,16.17
2018-11-01T19:59:11.282Z,16.16
2018-11-01T20:01:41.316Z,16.17
2018-11-01T20:04:12.938Z,16.16
2018-11-01T20:06:43.575Z,16.16
2018-11-01T20:09:13.822Z,16.15
2018-11-01T20:11:43.932Z,16.16
2018-11-01T20:14:13.860Z,16.14
2018-11-01T20:16:43.747Z,16.17
2018-11-01T20:19:13.970Z,16.16
2018-11-01T20:21:43.981Z,16.16
2018-11-01T20:24:14.260Z,16.17
2018-11-01T20:26:44.815Z,16.18
2018-11-01T20:29:15.245Z,16.15
2018-11-01T20:31:45.463Z,16.17
2018-11-01T20:34:15.502Z,16.18
2018-11-01T20:36:45.943Z,16.20
2018-11-01T20:39:16.060Z,16.20
2018-11-01T20:41:45.997Z,16.21
2018-11-01T20:44:16.180Z,16.21
2018-11-01T20:46:47.870Z,16.25
2018-11-01T20:49:18.113Z,16.26
2018-11-01T20:51:48.502Z,16.26
2018-11-01T20:54:18.626Z,16.25
2018-11-01T20:56:48.800Z,16.27
2018-11-01T20:59:18.762Z,16.25
2018-11-01T21:01:49.356Z,16.25
2018-11-01T21:04:19.483Z,16.25
2018-11-01T21:06:49.503Z,16.25
2018-11-01T21:09:20.215Z,16.24
2018-11-01T21:11:50.531Z,16.24
2018-11-01T21:14:20.461Z,16.23
2018-11-01T21:16:50.495Z,16.23
2018-11-01T21:19:20.821Z,16.21
2018-11-01T21:21:51.438Z,16.20
2018-11-01T21:24:22.231Z,16.19
2018-11-01T21:26:52.442Z,16.22
2018-11-01T21:29:23.173Z,16.24
2018-11-01T21:31:53.614Z,16.24
2018-11-01T21:34:23.983Z,16.26
2018-11-01T21:36:54.032Z,16.25
2018-11-01T21:39:24.132Z,16.25
2018-11-01T21:41:54.277Z,16.25
2018-11-01T21:44:24.313Z,16.26
2018-11-01T21:46:54.738Z,16.26
2018-11-01T21:49:24.900Z,16.26
2018-11-01T21:51:55.014Z,16.26
2018-11-01T21:54:25.582Z,16.25
2018-11-01T21:56:55.764Z,16.26
2018-11-01T21:59:25.649Z,16.27
2018-11-01T22:01:56.011Z,16.27
2018-11-01T22:04:26.181Z,16.27
2018-11-01T22:06:56.763Z,16.27
2018-11-01T22:09:26.954Z,16.38
2018-11-01T22:11:57.740Z,16.47
2018-11-01T22:14:27.898Z,16.53
2018-11-01T22:16:57.852Z,16.58
2018-11-01T22:19:27.984Z,16.64
2018-11-01T22:21:57.908Z,16.69
2018-11-01T22:24:27.940Z,16.74
2018-11-01T22:26:58.844Z,16.81
2018-11-01T22:29:28.931Z,16.83
2018-11-01T22:31:58.772Z,16.82
2018-11-01T22:34:28.962Z,16.83
2018-11-01T22:36:59.226Z,16.87
2018-11-01T22:39:29.431Z,16.89
2018-11-01T22:41:59.660Z,16.91
2018-11-01T22:44:29.885Z,16.92
2018-11-01T22:46:59.705Z,16.94
2018-11-01T22:49:30.097Z,16.94
2018-11-01T22:52:00.940Z,16.95
2018-11-01T22:54:35.384Z,16.96
2018-11-01T22:57:05.406Z,16.97
2018-11-01T22:59:35.740Z,16.93
2018-11-01T23:02:06.395Z,16.98
2018-11-01T23:04:36.686Z,17.03
2018-11-01T23:07:06.749Z,17.05
2018-11-01T23:09:37.787Z,17.05
2018-11-01T23:12:08.190Z,17.06
2018-11-01T23:14:38.595Z,17.05
2018-11-01T23:17:08.884Z,17.05
2018-11-01T23:19:39.177Z,17.07
2018-11-01T23:22:09.473Z,17.07
2018-11-01T23:24:40.596Z,17.08
2018-11-01T23:27:11.064Z,17.08
2018-11-01T23:29:41.259Z,17.08
2018-11-01T23:32:12.250Z,17.09
2018-11-01T23:34:42.685Z,17.10
2018-11-01T23:37:18.130Z,17.08
2018-11-01T23:39:53.896Z,17.09
2018-11-01T23:42:28.728Z,17.10
2018-11-01T23:45:06.046Z,17.12
2018-11-01T23:47:41.076Z,17.12
2018-11-01T23:50:19.843Z,17.14
2018-11-01T23:52:53.396Z,17.13
2018-11-01T23:55:23.449Z,17.15
2018-11-01T23:57:53.944Z,17.13
